« Back
NWS Peachtree City, Ga » Text Product » ATL Terminal Aerodrome Forecast


Printer-friendly Version
Current Version              Previous Versions:   1  2  3  4  5  6  7  8  9  

Terminal Aerodrome Forecast

926
FTUS42 KFFC 011345 AAA
TAFATL
TAF AMD
KATL 011345Z 0114/0218 22007KT P6SM SCT015
      TEMPO 0114/0115 BKN015
     FM011500 27006KT P6SM SCT025
     FM011800 28007KT P6SM SCT045
     FM020000 28004KT P6SM FEW250
     FM021400 28005KT P6SM FEW040=

USA.gov is the U.S. government's official web portal to all federal, state and local government web resources and services.